Time;durP1;ratioP1;P1;durP2;ratioP2;P2;SDS_P1;SDS_P2;PMS_P1;PMS_P2;Temp;Humidity;BMP_temperature;BMP_pressure;BME280_temperature;BME280_humidity;BME280_pressure;Samples;Min_cycle;Max_cycle;Signal;HPM_P1;HPM_P2
2022/04/28 00:00:36;;;;;;;12.73;8.38;;;;;;;13.56;55.52;100830.66;4953181;28;20426;-84
2022/04/28 00:03:03;;;;;;;16.13;9.32;;;;;;;13.52;55.51;100832.75;4965774;28;20035;-84
2022/04/28 00:05:30;;;;;;;15.07;8.93;;;;;;;13.49;55.35;100832.19;4966940;28;20047;-84
2022/04/28 00:07:57;;;;;;;16.90;9.02;;;;;;;13.44;55.18;100829.91;4967149;28;20077;-84
2022/04/28 00:10:24;;;;;;;13.55;8.80;;;;;;;13.44;55.44;100833.41;4966505;28;20117;-84
2022/04/28 00:12:50;;;;;;;17.63;8.07;;;;;;;13.42;55.49;100835.34;4969785;28;20042;-84
2022/04/28 00:15:17;;;;;;;16.33;8.82;;;;;;;13.41;55.34;100832.81;4984565;28;20060;-84
2022/04/28 00:17:45;;;;;;;15.27;9.20;;;;;;;13.38;55.34;100833.94;4967521;28;20051;-84
2022/04/28 00:20:13;;;;;;;17.02;8.48;;;;;;;13.37;55.37;100834.88;4964373;28;20525;-84
2022/04/28 00:22:40;;;;;;;14.43;8.82;;;;;;;13.36;55.34;100835.88;4967385;28;20113;-85
2022/04/28 00:25:07;;;;;;;12.73;8.50;;;;;;;13.33;55.53;100836.16;4973127;28;20050;-85
2022/04/28 00:27:34;;;;;;;14.35;9.82;;;;;;;13.30;55.43;100828.38;4972441;28;20056;-85
2022/04/28 00:30:01;;;;;;;13.43;8.23;;;;;;;13.28;55.57;100832.16;4970351;28;20055;-85
2022/04/28 00:32:28;;;;;;;13.25;8.93;;;;;;;13.27;55.64;100833.13;4971636;28;20116;-84
2022/04/28 00:34:56;;;;;;;12.75;8.10;;;;;;;13.24;55.66;100829.72;4991392;28;20057;-84
2022/04/28 00:37:23;;;;;;;14.43;8.95;;;;;;;13.22;55.53;100825.47;4981156;28;20097;-84
2022/04/28 00:39:51;;;;;;;12.93;9.60;;;;;;;13.21;55.48;100831.81;4970848;28;20042;-85
2022/04/28 00:42:20;;;;;;;12.73;8.43;;;;;;;13.18;55.46;100830.22;4987648;28;20046;-84
2022/04/28 00:44:46;;;;;;;12.82;8.38;;;;;;;13.15;55.59;100833.16;4985767;28;20053;-84
2022/04/28 00:47:14;;;;;;;15.13;8.13;;;;;;;13.15;55.63;100829.63;4984608;28;20056;-84
2022/04/28 00:52:27;;;;;;;14.60;8.07;;;;;;;13.10;55.55;100835.38;4981891;28;20042;-84
2022/04/28 00:54:55;;;;;;;13.75;8.18;;;;;;;13.08;55.47;100820.44;4953040;28;20879;-84
2022/04/28 00:57:22;;;;;;;16.08;8.35;;;;;;;13.06;55.58;100827.75;4968416;28;20076;-84
2022/04/28 00:59:51;;;;;;;10.30;8.10;;;;;;;13.03;55.58;100832.34;4980760;28;20042;-84
2022/04/28 01:02:18;;;;;;;11.15;7.63;;;;;;;13.02;55.72;100835.97;4969884;28;20046;-84
2022/04/28 01:04:47;;;;;;;15.77;8.88;;;;;;;12.99;55.77;100838.91;4953902;28;20042;-84
2022/04/28 01:07:15;;;;;;;12.57;8.00;;;;;;;12.98;55.74;100839.88;4976714;28;20043;-83
2022/04/28 01:09:42;;;;;;;12.07;8.57;;;;;;;12.96;55.72;100833.81;4953300;28;20069;-84
2022/04/28 01:12:15;;;;;;;11.60;7.88;;;;;;;12.93;55.53;100841.25;4987862;28;20046;-84
2022/04/28 01:14:47;;;;;;;10.95;7.90;;;;;;;12.91;55.38;100833.34;4972208;28;20524;-84
2022/04/28 01:17:15;;;;;;;14.05;8.52;;;;;;;12.88;55.64;100830.94;4984805;28;20086;-84
2022/04/28 01:19:49;;;;;;;13.15;8.75;;;;;;;12.86;55.55;100840.88;4951457;28;20058;-84
2022/04/28 01:22:16;;;;;;;9.85;7.85;;;;;;;12.86;55.61;100832.06;4956127;28;20177;-84
2022/04/28 01:24:43;;;;;;;13.35;8.10;;;;;;;12.84;55.62;100852.66;4986439;28;20061;-83
2022/04/28 01:27:11;;;;;;;13.05;8.63;;;;;;;12.84;55.81;100847.31;4967028;28;20096;-84
2022/04/28 01:29:37;;;;;;;15.98;8.75;;;;;;;12.78;55.51;100852.19;4985101;28;20061;-84
2022/04/28 01:32:04;;;;;;;15.05;8.40;;;;;;;12.74;55.65;100845.41;4971734;28;20054;-84
2022/04/28 01:34:39;;;;;;;15.48;8.77;;;;;;;12.73;55.63;100845.53;4937400;28;20398;-84
2022/04/28 01:37:06;;;;;;;14.80;8.38;;;;;;;12.72;55.50;100851.81;4984380;28;20078;-84
2022/04/28 01:39:34;;;;;;;16.13;8.73;;;;;;;12.70;55.81;100848.47;4969558;28;20128;-84
2022/04/28 01:42:00;;;;;;;13.32;7.93;;;;;;;12.68;55.86;100853.91;4990520;28;20038;-84
2022/04/28 01:44:28;;;;;;;12.25;8.38;;;;;;;12.68;55.57;100859.22;4986932;28;20406;-84
2022/04/28 01:46:55;;;;;;;14.73;8.18;;;;;;;12.65;55.62;100854.16;4951506;28;20074;-84
2022/04/28 01:49:30;;;;;;;14.38;8.75;;;;;;;12.64;55.38;100854.25;4987324;28;20409;-84
2022/04/28 01:55:22;;;;;;;13.15;8.57;;;;;;;12.56;55.89;100853.06;4958407;28;20095;-84
2022/04/28 01:58:02;;;;;;;13.40;8.23;;;;;;;12.53;55.79;100847.97;4964468;28;20125;-84
2022/04/28 02:00:46;;;;;;;17.33;8.73;;;;;;;12.51;55.88;100849.06;4975423;28;20054;-85
2022/04/28 02:03:14;;;;;;;13.45;8.55;;;;;;;12.50;55.78;100850.06;4969269;28;20472;-82
2022/04/28 02:05:43;;;;;;;13.18;8.25;;;;;;;12.50;55.61;100844.72;4984508;28;20536;-83
2022/04/28 02:08:09;;;;;;;13.45;7.30;;;;;;;12.46;55.63;100844.13;4955053;28;20057;-82
2022/04/28 02:10:36;;;;;;;15.77;8.20;;;;;;;12.45;55.54;100847.75;4959028;28;20412;-82
2022/04/28 02:13:07;;;;;;;13.07;8.32;;;;;;;12.44;55.82;100850.53;4967865;28;20391;-81
2022/04/28 02:16:00;;;;;;;11.93;7.43;;;;;;;12.40;55.95;100846.44;4914784;28;20047;-81
2022/04/28 02:18:54;;;;;;;12.27;8.53;;;;;;;12.37;55.83;100859.03;4953853;28;20050;-81
2022/04/28 02:21:21;;;;;;;13.73;8.02;;;;;;;12.36;55.85;100860.00;4969726;28;20112;-81
2022/04/28 02:23:48;;;;;;;15.75;8.68;;;;;;;12.34;55.87;100853.94;4972929;28;20050;-81
2022/04/28 02:26:15;;;;;;;12.38;8.38;;;;;;;12.31;55.87;100856.00;4989323;28;20092;-82
2022/04/28 02:28:42;;;;;;;11.73;8.27;;;;;;;12.28;55.77;100857.09;4984608;28;20045;-82
2022/04/28 02:31:10;;;;;;;12.80;8.55;;;;;;;12.27;55.91;100858.06;4948865;28;20434;-82
2022/04/28 02:33:38;;;;;;;12.55;8.93;;;;;;;12.25;55.84;100859.16;4966749;28;20113;-82
2022/04/28 02:36:24;;;;;;;12.85;7.72;;;;;;;12.21;55.80;100855.88;4968462;28;20061;-82
2022/04/28 02:38:52;;;;;;;12.25;8.20;;;;;;;12.20;55.89;100859.50;4964035;28;20047;-82
2022/04/28 02:41:20;;;;;;;13.05;8.02;;;;;;;12.19;55.81;100860.50;4967572;28;20050;-82
2022/04/28 02:43:50;;;;;;;13.15;7.85;;;;;;;12.19;55.94;100857.84;4968748;28;20046;-82
2022/04/28 02:46:18;;;;;;;12.00;8.30;;;;;;;12.18;56.15;100860.59;4968843;28;20042;-82
2022/04/28 02:48:55;;;;;;;14.98;8.15;;;;;;;12.14;55.99;100860.00;4935597;28;20042;-82
2022/04/28 02:51:22;;;;;;;12.00;7.55;;;;;;;12.12;55.83;100856.63;4969593;28;20066;-82
2022/04/28 02:53:49;;;;;;;13.13;8.27;;;;;;;12.11;55.97;100854.91;4967528;28;20517;-81
2022/04/28 02:56:16;;;;;;;11.52;8.18;;;;;;;12.09;56.08;100857.72;4951154;28;20066;-82
2022/04/28 02:58:43;;;;;;;13.52;8.45;;;;;;;12.07;56.09;100853.47;4984067;28;20058;-81
2022/04/28 03:01:10;;;;;;;14.48;7.95;;;;;;;12.05;55.92;100856.25;4985085;28;20580;-81
2022/04/28 03:03:42;;;;;;;12.40;8.35;;;;;;;12.03;56.01;100858.16;4966678;28;20056;-81
2022/04/28 03:11:41;;;;;;;14.85;8.70;;;;;;;11.95;56.07;100866.75;4904618;28;20042;-81
2022/04/28 03:14:12;;;;;;;13.15;8.45;;;;;;;11.95;55.95;100866.75;4966251;28;20047;-81
2022/04/28 03:16:39;;;;;;;14.15;8.65;;;;;;;11.94;55.91;100872.22;4951315;28;20058;-81
2022/04/28 03:19:08;;;;;;;13.15;8.75;;;;;;;11.90;55.98;100863.59;4983902;28;20050;-81
2022/04/28 03:21:37;;;;;;;12.13;8.13;;;;;;;11.91;56.26;100869.78;4969112;28;20057;-81
2022/04/28 03:24:07;;;;;;;12.05;8.05;;;;;;;11.88;55.82;100864.69;4967743;28;20343;-81
2022/04/28 03:26:37;;;;;;;12.57;8.05;;;;;;;11.85;56.04;100868.41;4991028;28;20121;-81
2022/04/28 03:29:06;;;;;;;10.98;7.43;;;;;;;11.82;55.98;100876.63;4998819;28;20137;-80
2022/04/28 03:31:35;;;;;;;11.73;7.93;;;;;;;11.80;55.92;100875.06;4976399;28;20206;-80
2022/04/28 03:34:10;;;;;;;11.82;7.68;;;;;;;11.78;56.15;100869.88;4929773;28;20042;-80
2022/04/28 03:36:50;;;;;;;12.95;8.45;;;;;;;11.75;56.01;100878.06;4967055;28;20043;-81
2022/04/28 03:39:21;;;;;;;;;;;;;;;11.45;56.85;100874.13;4978528;28;20136;-81
2022/04/28 03:41:48;;;;;;;13.93;8.75;;;;;;;11.65;56.11;100874.41;4981138;28;20012;-82
2022/04/28 03:44:15;;;;;;;12.65;8.38;;;;;;;11.66;56.07;100873.47;4945441;28;20046;-82
2022/04/28 03:46:47;;;;;;;14.90;8.60;;;;;;;11.61;56.14;100881.78;4966617;28;20712;-82
2022/04/28 03:49:16;;;;;;;13.23;8.93;;;;;;;11.61;56.22;100883.59;4945550;28;20054;-85
2022/04/28 03:51:43;;;;;;;11.38;8.05;;;;;;;11.61;56.09;100881.78;4945941;28;20747;-86
2022/04/28 03:54:11;;;;;;;17.52;8.80;;;;;;;11.60;56.03;100889.88;4985631;28;20065;-85
2022/04/28 03:56:38;;;;;;;13.63;8.13;;;;;;;11.59;56.03;100885.53;4963443;28;20046;-85
2022/04/28 03:59:09;;;;;;;14.05;8.15;;;;;;;11.58;55.93;100881.19;4982758;28;20129;-82
2022/04/28 04:02:01;;;;;;;13.18;8.38;;;;;;;11.54;56.02;100887.69;4940231;28;20046;-81
2022/04/28 04:04:28;;;;;;;13.65;8.77;;;;;;;11.52;55.93;100886.00;4946927;28;20054;-80
2022/04/28 04:07:07;;;;;;;11.23;7.60;;;;;;;11.50;56.16;100884.44;4980714;28;20128;-81
2022/04/28 04:09:36;;;;;;;16.80;8.88;;;;;;;11.47;55.85;100896.16;4966704;28;20050;-81
2022/04/28 04:12:14;;;;;;;15.45;8.82;;;;;;;11.46;56.13;100897.09;4917076;28;20133;-80
2022/04/28 04:14:56;;;;;;;13.00;8.87;;;;;;;11.42;56.16;100898.31;4972753;28;20046;-79
2022/04/28 04:17:26;;;;;;;15.63;8.93;;;;;;;11.43;55.99;100907.13;4980424;28;20046;-80
2022/04/28 04:19:53;;;;;;;16.92;8.43;;;;;;;11.42;56.17;100897.44;4965775;28;20398;-80
2022/04/28 04:22:20;;;;;;;12.73;7.20;;;;;;;11.40;56.06;100904.69;4944717;28;20049;-80
2022/04/28 04:24:47;;;;;;;13.90;9.00;;;;;;;11.40;56.22;100897.56;4964576;28;20057;-80
2022/04/28 04:27:17;;;;;;;11.32;8.35;;;;;;;11.38;56.27;100907.47;4971312;28;20077;-81
2022/04/28 04:32:17;;;;;;;12.25;8.07;;;;;;;11.36;56.40;100914.69;4930449;28;20047;-80
2022/04/28 04:32:50;;;;;;;13.15;7.80;;;;;;;11.34;56.35;100913.13;4878195;29;20051;-81
2022/04/28 04:35:26;;;;;;;13.15;8.50;;;;;;;11.32;56.26;100923.00;4908123;29;20135;-80
2022/04/28 04:37:54;;;;;;;13.27;8.40;;;;;;;11.29;56.51;100918.78;4884604;29;20055;-81
2022/04/28 04:40:25;;;;;;;14.90;8.82;;;;;;;11.27;56.41;100916.25;4890721;29;20403;-80
2022/04/28 04:42:51;;;;;;;13.90;8.02;;;;;;;11.27;56.38;100920.69;4888535;29;20103;-81
2022/04/28 04:45:19;;;;;;;13.05;8.40;;;;;;;11.27;56.61;100936.63;4890399;29;20507;-80
2022/04/28 04:48:18;;;;;;;19.50;8.38;;;;;;;11.23;56.30;100930.72;4877810;28;20051;-81
2022/04/28 04:50:52;;;;;;;15.05;9.32;;;;;;;11.21;56.29;100929.97;4872207;29;20074;-81
2022/04/28 04:53:23;;;;;;;11.43;8.30;;;;;;;11.20;56.27;100930.94;4906796;28;20134;-81
2022/04/28 04:55:50;;;;;;;15.05;8.75;;;;;;;11.20;56.56;100936.25;4874950;28;20060;-81
2022/04/28 04:58:17;;;;;;;14.70;9.10;;;;;;;11.19;56.69;100942.53;4878628;28;20055;-81
2022/04/28 05:00:44;;;;;;;16.35;8.93;;;;;;;11.19;56.57;100941.69;4869194;29;20103;-81
2022/04/28 05:03:23;;;;;;;14.75;9.18;;;;;;;11.19;56.54;100953.16;4925638;28;20046;-80
2022/04/28 05:06:10;;;;;;;16.60;9.15;;;;;;;11.19;56.82;100949.66;4909577;28;20169;-81
2022/04/28 05:09:04;;;;;;;14.52;9.55;;;;;;;11.19;56.64;100958.47;4967245;28;20055;-83
2022/04/28 05:11:31;;;;;;;20.38;9.50;;;;;;;11.20;56.89;100960.19;4959424;28;20065;-80
2022/04/28 05:14:10;;;;;;;15.07;9.40;;;;;;;11.19;56.45;100962.94;4954677;28;20054;-81
2022/04/28 05:16:37;;;;;;;17.75;9.88;;;;;;;11.21;56.89;100955.72;4964520;28;20165;-80
2022/04/28 05:19:19;;;;;;;15.43;9.10;;;;;;;11.21;56.97;100953.91;4987660;28;20066;-80
2022/04/28 05:22:01;;;;;;;13.48;9.95;;;;;;;11.20;56.80;100954.88;4981935;28;20053;-80
2022/04/28 05:25:06;;;;;;;13.68;9.38;;;;;;;11.19;56.98;100953.16;4871116;28;20527;-82
2022/04/28 05:27:52;;;;;;;14.90;8.80;;;;;;;11.20;57.26;100968.16;4921588;28;20040;-81
2022/04/28 05:30:51;;;;;;;14.20;8.90;;;;;;;11.20;57.21;100967.31;4909808;28;20043;-81
2022/04/28 05:33:34;;;;;;;16.25;9.48;;;;;;;11.21;57.40;100966.34;4941728;28;20065;-81
2022/04/28 05:36:14;;;;;;;14.55;9.43;;;;;;;11.24;57.55;100979.41;4913503;28;20047;-81
2022/04/28 05:38:41;;;;;;;15.48;9.57;;;;;;;11.24;57.33;100976.75;4970133;28;20159;-81
2022/04/28 05:41:08;;;;;;;16.55;9.48;;;;;;;11.22;57.65;100978.66;4955376;28;20069;-81
2022/04/28 05:46:21;;;;;;;17.80;9.85;;;;;;;11.24;57.50;100977.59;4939082;28;20654;-81
2022/04/28 05:48:48;;;;;;;14.60;9.75;;;;;;;11.25;57.58;100975.81;4939899;28;20056;-80
2022/04/28 05:51:15;;;;;;;16.67;10.65;;;;;;;11.27;57.94;100985.38;4967423;28;20045;-81
2022/04/28 05:53:42;;;;;;;19.85;11.20;;;;;;;11.27;58.07;100980.06;4939188;28;20446;-81
2022/04/28 05:56:09;;;;;;;16.67;10.02;;;;;;;11.30;57.98;100984.31;4986641;28;20042;-80
2022/04/28 05:58:47;;;;;;;23.17;11.80;;;;;;;11.28;58.11;100988.88;4966751;28;20510;-81
2022/04/28 06:01:32;;;;;;;21.95;12.18;;;;;;;11.24;58.19;100988.22;4946179;28;20417;-81
2022/04/28 06:04:05;;;;;;;24.27;11.80;;;;;;;11.26;58.62;100983.66;4983206;28;20093;-81
2022/04/28 06:06:39;;;;;;;21.45;11.35;;;;;;;11.24;58.89;100990.03;4967511;28;20053;-81
2022/04/28 06:09:17;;;;;;;20.85;11.63;;;;;;;11.23;58.93;100991.03;4984312;28;20446;-81
2022/04/28 06:11:44;;;;;;;21.88;12.13;;;;;;;11.29;59.13;101001.19;4965470;28;20092;-81
2022/04/28 06:14:12;;;;;;;19.02;12.88;;;;;;;11.31;59.28;100991.31;4967441;28;20490;-80
2022/04/28 06:16:45;;;;;;;20.45;12.70;;;;;;;11.33;59.29;100997.38;4982040;28;20048;-85
2022/04/28 06:19:25;;;;;;;22.02;12.88;;;;;;;11.26;59.97;101004.09;4951511;28;20049;-85
2022/04/28 06:22:04;;;;;;;17.38;12.27;;;;;;;11.29;60.03;100998.53;4966240;28;20749;-86
2022/04/28 06:24:38;;;;;;;25.88;12.77;;;;;;;11.34;59.94;101000.88;4966632;28;20042;-85
2022/04/28 06:27:06;;;;;;;20.45;12.32;;;;;;;11.33;60.31;101005.34;4954365;28;20520;-85
2022/04/28 06:29:35;;;;;;;25.77;12.27;;;;;;;11.39;60.26;101006.69;4980787;28;20109;-85
2022/04/28 06:32:07;;;;;;;19.15;12.23;;;;;;;11.36;60.49;101001.63;4959794;28;20059;-84
2022/04/28 06:34:53;;;;;;;18.02;12.05;;;;;;;11.40;60.76;101003.94;4960497;28;20487;-85
2022/04/28 06:37:25;;;;;;;21.40;12.52;;;;;;;11.39;60.75;101015.53;4994998;28;20682;-85
2022/04/28 06:39:56;;;;;;;22.77;12.82;;;;;;;11.44;61.10;101002.72;4977090;28;20133;-84
2022/04/28 06:42:23;;;;;;;23.40;12.15;;;;;;;11.49;61.01;101011.22;4964807;28;20045;-86
2022/04/28 06:45:12;;;;;;;24.50;12.32;;;;;;;11.49;61.39;101005.06;4978678;28;20097;-86
2022/04/28 06:47:57;;;;;;;26.52;12.35;;;;;;;11.55;61.53;101015.28;4972551;28;20133;-86
2022/04/28 06:50:39;;;;;;;24.45;13.00;;;;;;;11.57;61.48;101010.66;4926203;28;20715;-85
2022/04/28 06:53:37;;;;;;;20.80;13.10;;;;;;;11.60;61.74;101006.94;4948976;28;20517;-86
2022/04/28 06:56:07;;;;;;;21.48;12.88;;;;;;;11.60;61.95;101013.13;4984602;28;20049;-86
2022/04/28 06:58:53;;;;;;;23.92;12.77;;;;;;;11.56;62.54;101014.28;4977020;28;20565;-86
2022/04/28 07:01:27;;;;;;;22.15;12.82;;;;;;;11.68;62.46;101017.88;4968091;28;20046;-86
2022/04/28 07:04:03;;;;;;;23.17;12.30;;;;;;;11.75;62.32;101019.09;4949735;28;20049;-86
2022/04/28 07:06:30;;;;;;;20.40;12.45;;;;;;;11.74;62.25;101014.75;4951555;28;20709;-86
2022/04/28 07:08:57;;;;;;;20.35;12.43;;;;;;;11.79;61.84;101017.91;4967262;28;20042;-85
2022/04/28 07:11:24;;;;;;;21.70;11.85;;;;;;;11.80;61.91;101022.25;4982965;28;20057;-86
2022/04/28 07:13:57;;;;;;;23.08;11.80;;;;;;;11.80;61.99;101022.25;4965321;28;20133;-86
2022/04/28 07:16:54;;;;;;;22.35;11.60;;;;;;;11.78;61.93;101018.88;4930658;28;20046;-85
2022/04/28 07:19:24;;;;;;;23.67;11.55;;;;;;;11.83;61.82;101008.75;4966709;28;20054;-86
2022/04/28 07:21:52;;;;;;;21.50;12.55;;;;;;;11.91;61.79;101016.19;4986364;28;20065;-86
2022/04/28 07:24:19;;;;;;;28.33;12.75;;;;;;;11.99;61.42;101015.59;4967946;28;20038;-86
2022/04/28 07:26:45;;;;;;;17.83;10.82;;;;;;;11.94;61.56;101015.94;4969509;28;20044;-86
2022/04/28 07:29:12;;;;;;;17.02;10.90;;;;;;;11.98;61.71;101022.72;5002783;28;20049;-86
2022/04/28 07:32:07;;;;;;;19.30;11.70;;;;;;;11.98;61.80;101020.06;4934334;28;20129;-86
2022/04/28 07:34:52;;;;;;;19.98;11.52;;;;;;;12.03;62.07;101025.88;4989822;28;20490;-86
2022/04/28 07:37:45;;;;;;;16.85;10.55;;;;;;;12.03;62.32;101022.38;4940885;28;20046;-86
2022/04/28 07:40:36;;;;;;;22.02;12.30;;;;;;;12.09;61.94;101020.09;4964598;28;20065;-84
2022/04/28 07:43:09;;;;;;;17.33;11.65;;;;;;;12.12;61.98;101021.69;4928282;28;20061;-85
2022/04/28 07:45:38;;;;;;;22.35;12.00;;;;;;;12.21;61.96;101015.66;4933783;28;20049;-86
2022/04/28 07:48:16;;;;;;;25.35;12.95;;;;;;;12.27;62.06;101023.19;4948188;28;20050;-84
2022/04/28 07:50:43;;;;;;;20.80;11.70;;;;;;;12.26;62.08;101016.16;4958349;28;20057;-85
2022/04/28 07:53:16;;;;;;;21.10;12.40;;;;;;;12.30;62.30;101014.94;4983907;28;21935;-86
2022/04/28 07:55:44;;;;;;;17.33;11.23;;;;;;;12.30;61.93;101017.63;4964976;28;20046;-86
2022/04/28 07:58:10;;;;;;;19.67;11.00;;;;;;;12.34;61.85;101015.59;4967790;28;20137;-85
2022/04/28 08:00:56;;;;;;;20.40;11.57;;;;;;;12.36;62.35;101016.28;4975710;28;20069;-86
2022/04/28 08:03:23;;;;;;;17.45;11.13;;;;;;;12.42;61.97;101017.66;4955467;28;20497;-86
2022/04/28 08:05:53;;;;;;;19.58;11.82;;;;;;;12.39;61.97;101021.41;4982985;28;20085;-85
2022/04/28 08:08:20;;;;;;;18.85;11.45;;;;;;;12.44;61.83;101021.03;4958099;28;20046;-85
2022/04/28 08:10:48;;;;;;;22.80;11.30;;;;;;;12.45;61.85;101017.41;4969145;28;20042;-85
2022/04/28 08:13:18;;;;;;;19.13;11.32;;;;;;;12.47;61.70;101016.31;4981627;28;20112;-86
2022/04/28 08:16:04;;;;;;;16.65;10.57;;;;;;;12.48;61.65;101014.50;4944584;28;20494;-86
2022/04/28 08:18:39;;;;;;;18.85;11.10;;;;;;;12.52;61.66;101019.47;4964322;28;20128;-86
2022/04/28 08:21:10;;;;;;;18.40;11.05;;;;;;;12.58;61.97;101028.81;4996293;28;20054;-86
2022/04/28 08:23:37;;;;;;;20.10;10.93;;;;;;;12.64;61.48;101016.81;4965668;28;20054;-86
2022/04/28 08:26:04;;;;;;;15.70;9.77;;;;;;;12.66;61.35;101022.88;4945806;28;20129;-86
2022/04/28 08:28:31;;;;;;;15.75;11.20;;;;;;;12.69;61.48;101017.28;4972532;28;20038;-84
2022/04/28 08:30:58;;;;;;;15.15;9.20;;;;;;;12.67;61.83;101012.09;4971919;28;20054;-86
2022/04/28 08:33:25;;;;;;;14.73;8.82;;;;;;;12.71;61.13;101018.03;4966065;28;20379;-86
2022/04/28 08:35:52;;;;;;;16.30;8.77;;;;;;;12.72;61.33;101023.25;4969410;28;20054;-86
2022/04/28 08:38:20;;;;;;;14.77;8.20;;;;;;;12.75;61.72;101022.16;4982773;28;20066;-86
2022/04/28 08:40:48;;;;;;;15.75;8.80;;;;;;;12.76;61.35;101015.84;5001374;28;20053;-86
2022/04/28 08:43:32;;;;;;;18.63;8.85;;;;;;;12.80;60.95;101023.50;4979578;28;20089;-86
2022/04/28 08:48:55;;;;;;;12.18;7.63;;;;;;;12.85;60.44;101024.94;4921339;28;20042;-84
2022/04/28 08:51:26;;;;;;;12.18;7.85;;;;;;;12.87;60.55;101021.16;4986627;28;20549;-85
2022/04/28 08:53:59;;;;;;;13.32;6.95;;;;;;;12.99;58.72;101022.03;4970879;28;20097;-85
2022/04/28 08:56:27;;;;;;;8.57;6.45;;;;;;;12.99;59.14;101022.03;4970234;28;20074;-86
2022/04/28 08:59:00;;;;;;;9.98;6.25;;;;;;;13.00;59.15;101015.72;4983420;28;20049;-85
2022/04/28 09:01:28;;;;;;;8.82;6.32;;;;;;;13.04;59.50;101020.69;4986603;28;20069;-86
2022/04/28 09:04:10;;;;;;;11.07;6.57;;;;;;;13.05;59.39;101029.53;4985894;28;20383;-86
2022/04/28 09:07:17;;;;;;;10.48;6.30;;;;;;;13.09;58.36;101027.47;4902739;28;20047;-81
2022/04/28 09:09:43;;;;;;;9.52;6.03;;;;;;;13.10;57.85;101026.50;4986951;28;20043;-81
2022/04/28 09:12:26;;;;;;;13.60;7.03;;;;;;;13.13;57.11;101023.59;4992702;28;20158;-81
2022/04/28 09:15:12;;;;;;;10.48;6.90;;;;;;;13.11;58.45;101021.06;4969994;28;20053;-81
2022/04/28 09:17:56;;;;;;;7.95;5.55;;;;;;;13.15;56.78;101026.97;4962337;28;20050;-81
2022/04/28 09:20:25;;;;;;;5.80;5.00;;;;;;;13.12;55.82;101020.06;4983392;28;20046;-81
2022/04/28 09:23:00;;;;;;;8.32;5.57;;;;;;;13.12;56.32;101020.06;4919599;28;20061;-82
2022/04/28 09:25:38;;;;;;;7.68;5.78;;;;;;;13.18;55.90;101022.25;4964258;28;20042;-81
2022/04/28 09:28:07;;;;;;;6.95;5.50;;;;;;;13.26;54.50;101026.97;4984835;28;20042;-81
2022/04/28 09:30:42;;;;;;;12.43;6.30;;;;;;;13.18;53.19;101008.94;4995315;28;20048;-81
2022/04/28 09:33:29;;;;;;;9.15;5.30;;;;;;;13.30;54.40;101014.25;4945555;28;20129;-81
2022/04/28 09:36:17;;;;;;;8.07;5.80;;;;;;;13.47;52.12;101016.41;4916467;28;20057;-81
2022/04/28 09:38:58;;;;;;;9.32;5.78;;;;;;;13.55;53.52;101010.44;4983691;28;20055;-81
2022/04/28 09:44:42;;;;;;;8.60;5.30;;;;;;;13.44;51.91;101019.31;4936064;28;20487;-81
2022/04/28 09:47:14;;;;;;;9.75;6.15;;;;;;;13.45;52.54;101008.50;4971932;28;20042;-82
2022/04/28 09:49:41;;;;;;;10.07;5.07;;;;;;;13.46;51.94;101006.72;4975303;28;20045;-81
2022/04/28 09:52:32;;;;;;;9.23;5.28;;;;;;;13.45;53.11;100999.66;4921206;28;20061;-81
2022/04/28 09:55:19;;;;;;;7.75;5.68;;;;;;;13.60;54.01;101016.25;4967347;28;20552;-81
2022/04/28 09:58:09;;;;;;;9.60;5.35;;;;;;;13.64;50.67;101009.69;4954794;28;20046;-82
2022/04/28 10:00:38;;;;;;;7.93;5.25;;;;;;;13.71;50.15;101010.00;4977710;28;20050;-81
2022/04/28 10:03:09;;;;;;;9.30;5.00;;;;;;;13.86;47.96;101009.56;4985678;28;20120;-82
2022/04/28 10:05:38;;;;;;;6.35;4.50;;;;;;;13.85;48.69;101018.56;4983301;28;20046;-82
2022/04/28 10:08:25;;;;;;;8.25;5.00;;;;;;;13.79;48.20;101004.88;4974504;28;20499;-81
2022/04/28 10:10:57;;;;;;;7.93;5.18;;;;;;;14.00;48.07;101008.44;4957880;28;20046;-81
2022/04/28 10:13:25;;;;;;;7.03;5.07;;;;;;;13.99;46.32;101008.56;4990201;28;20050;-81
2022/04/28 10:16:00;;;;;;;9.60;4.72;;;;;;;14.01;46.40;101006.59;4974075;28;20067;-81
2022/04/28 10:18:41;;;;;;;6.78;5.03;;;;;;;14.02;43.31;101005.66;4965679;28;20074;-82
2022/04/28 10:21:12;;;;;;;8.98;4.95;;;;;;;14.03;45.81;101013.50;4900687;28;20054;-82
2022/04/28 10:32:58;;;;;;;9.23;4.93;;;;;;;13.98;44.04;101021.06;4996051;28;20045;-82
2022/04/28 10:35:48;;;;;;;6.38;4.40;;;;;;;13.98;44.87;100994.34;4940373;28;20394;-81
2022/04/28 10:38:31;;;;;;;5.53;4.40;;;;;;;14.12;43.95;101001.22;4946566;28;20050;-81
2022/04/28 10:41:11;;;;;;;6.82;4.25;;;;;;;14.11;44.75;101002.19;4930265;28;20488;-81
2022/04/28 10:43:40;;;;;;;6.32;4.75;;;;;;;14.24;43.54;100994.81;4945194;28;20402;-81
2022/04/28 10:46:08;;;;;;;6.35;4.13;;;;;;;14.26;42.88;101000.88;4926501;28;20610;-81
2022/04/28 10:48:42;;;;;;;6.30;4.10;;;;;;;14.36;41.44;101006.28;4962940;28;20050;-81
2022/04/28 10:51:17;;;;;;;4.38;3.65;;;;;;;14.46;40.65;101004.50;4949756;28;20054;-81
2022/04/28 10:54:09;;;;;;;7.72;3.95;;;;;;;14.53;39.43;100992.34;4943554;28;20047;-82
2022/04/28 10:56:39;;;;;;;4.70;3.58;;;;;;;14.37;41.09;101001.78;4963455;28;20052;-81
2022/04/28 10:59:29;;;;;;;7.53;4.00;;;;;;;14.31;41.49;101005.84;4982411;28;20053;-81
2022/04/28 11:01:56;;;;;;;8.90;4.57;;;;;;;14.52;42.13;101005.81;4965609;28;20074;-82
2022/04/28 11:04:24;;;;;;;6.95;4.20;;;;;;;14.44;41.22;101010.97;4938824;28;20051;-82
2022/04/28 11:06:57;;;;;;;5.30;3.67;;;;;;;14.52;41.19;100997.78;4952078;28;20525;-81
2022/04/28 11:09:43;;;;;;;6.45;4.18;;;;;;;14.59;42.29;100995.47;4951214;28;20047;-81
2022/04/28 11:12:15;;;;;;;8.27;5.10;;;;;;;14.68;42.55;101003.53;4951191;28;20058;-81
2022/04/28 11:15:00;;;;;;;5.97;5.10;;;;;;;14.50;44.28;101000.59;4948087;28;20047;-81
2022/04/28 11:17:30;;;;;;;9.88;4.93;;;;;;;14.60;44.47;100995.31;4948812;28;20494;-81
2022/04/28 11:20:05;;;;;;;9.60;4.70;;;;;;;14.53;44.04;100995.03;4983047;28;20049;-81
2022/04/28 11:22:43;;;;;;;5.25;3.67;;;;;;;14.59;43.90;100988.28;4970884;28;20130;-81
2022/04/28 11:25:14;;;;;;;6.68;3.92;;;;;;;14.68;42.04;101000.00;4967912;28;20516;-81
2022/04/28 11:27:46;;;;;;;6.22;3.85;;;;;;;14.75;43.21;100982.44;5000039;28;20046;-81
2022/04/28 11:30:18;;;;;;;5.85;4.03;;;;;;;14.77;42.45;100985.84;4949396;28;20058;-81
2022/04/28 11:32:51;;;;;;;10.07;4.53;;;;;;;14.85;42.46;100980.66;4981973;28;20422;-81
2022/04/28 11:35:19;;;;;;;;;;;;;;;14.77;42.68;100992.03;4983310;28;20050;-81
2022/04/28 11:37:48;;;;;;;8.30;4.95;;;;;;;14.82;43.73;100999.66;4999285;28;19922;-81
2022/04/28 11:40:16;;;;;;;8.20;5.22;;;;;;;14.85;42.96;100988.66;4983670;28;20058;-81
2022/04/28 11:42:59;;;;;;;5.80;4.38;;;;;;;14.80;43.36;100987.41;4962617;28;20078;-81
2022/04/28 11:45:29;;;;;;;8.77;5.15;;;;;;;14.92;43.34;100994.34;4978896;28;20081;-81
2022/04/28 11:47:59;;;;;;;8.55;4.40;;;;;;;15.06;42.25;100990.44;4981606;28;20387;-82
2022/04/28 11:50:30;;;;;;;6.25;4.35;;;;;;;15.03;41.29;100993.38;4982457;28;20125;-81
2022/04/28 11:53:04;;;;;;;6.43;4.00;;;;;;;15.08;40.42;100981.28;4964424;28;20050;-82
2022/04/28 11:55:35;;;;;;;9.27;4.00;;;;;;;15.02;40.29;100981.84;4951380;28;20042;-82
2022/04/28 11:58:02;;;;;;;4.20;3.47;;;;;;;15.06;41.33;100969.03;5004537;28;20512;-82
2022/04/28 12:00:37;;;;;;;6.10;4.32;;;;;;;15.07;40.55;100973.41;4967633;28;20045;-81
2022/04/28 12:03:05;;;;;;;6.28;4.18;;;;;;;15.05;42.64;100968.19;4998851;28;20061;-81
2022/04/28 12:05:34;;;;;;;6.13;3.97;;;;;;;15.06;42.87;100967.22;4988815;28;20125;-81
2022/04/28 12:08:01;;;;;;;6.85;3.90;;;;;;;15.10;42.19;100970.47;4988356;28;20117;-81
2022/04/28 12:16:08;;;;;;;7.65;4.88;;;;;;;15.29;42.50;100977.66;4955698;28;20038;-81
2022/04/28 12:21:23;;;;;;;5.75;3.72;;;;;;;15.30;42.81;100969.50;4970402;28;20035;-81